createdAt,value
2022-09-14T00:01:14.317Z,58.20
2022-09-14T00:03:42.272Z,59.02
2022-09-14T00:06:12.387Z,58.74
2022-09-14T00:08:40.333Z,59.85
2022-09-14T00:11:11.850Z,60.55
2022-09-14T00:13:40.881Z,59.97
2022-09-14T00:16:14.794Z,60.14
2022-09-14T00:18:42.869Z,60.56
2022-09-14T00:21:11.761Z,60.86
2022-09-14T00:23:41.360Z,61.21
2022-09-14T00:26:12.350Z,60.93
2022-09-14T00:28:40.486Z,61.94
2022-09-14T00:31:10.268Z,61.05
2022-09-14T00:33:38.453Z,62.03
2022-09-14T00:36:08.731Z,61.76
2022-09-14T00:38:36.905Z,60.94
2022-09-14T00:41:09.653Z,60.91
2022-09-14T00:43:53.577Z,61.32
2022-09-14T00:46:22.883Z,60.98
2022-09-14T00:48:50.777Z,60.19
2022-09-14T00:51:20.255Z,60.33
2022-09-14T00:53:48.064Z,60.79
2022-09-14T00:56:16.041Z,60.75
2022-09-14T00:58:44.493Z,60.70
2022-09-14T01:01:12.575Z,60.37
2022-09-14T01:03:41.692Z,60.05
2022-09-14T01:06:15.549Z,59.50
2022-09-14T01:08:53.880Z,59.37
2022-09-14T01:11:31.693Z,60.15
2022-09-14T01:14:04.684Z,60.09
2022-09-14T01:16:37.806Z,59.62
2022-09-14T01:19:11.334Z,59.51
2022-09-14T01:21:42.019Z,59.34
2022-09-14T01:24:14.567Z,59.31
2022-09-14T01:27:10.281Z,58.81
2022-09-14T01:29:42.879Z,58.15
2022-09-14T01:32:14.520Z,58.20
2022-09-14T01:34:46.737Z,58.58
2022-09-14T01:37:18.516Z,58.07
2022-09-14T01:39:49.093Z,58.48
2022-09-14T01:42:19.701Z,58.18
2022-09-14T01:44:50.725Z,58.24
2022-09-14T01:47:23.233Z,58.51
2022-09-14T01:49:54.743Z,58.37
2022-09-14T01:52:24.866Z,58.14
2022-09-14T01:54:55.501Z,58.19
2022-09-14T01:57:27.200Z,58.91
2022-09-14T01:59:58.183Z,58.62
2022-09-14T02:02:30.267Z,59.02
2022-09-14T02:05:02.489Z,59.33
2022-09-14T02:07:30.569Z,60.32
2022-09-14T02:09:59.125Z,60.83
2022-09-14T02:12:28.420Z,61.22
2022-09-14T02:14:56.407Z,62.87
2022-09-14T02:17:24.238Z,62.66
2022-09-14T02:19:54.744Z,64.25
2022-09-14T02:22:22.507Z,64.09
2022-09-14T02:24:50.861Z,64.17
2022-09-14T02:27:18.577Z,64.44
2022-09-14T02:29:47.710Z,65.82
2022-09-14T02:32:22.087Z,67.24
2022-09-14T02:34:56.057Z,67.71
2022-09-14T02:37:30.654Z,68.80
2022-09-14T02:40:02.901Z,69.07
2022-09-14T02:42:40.075Z,69.96
2022-09-14T02:45:14.041Z,70.73
2022-09-14T02:47:50.159Z,69.21
2022-09-14T02:50:21.787Z,70.16
2022-09-14T02:52:53.437Z,71.15
2022-09-14T02:55:23.569Z,71.34
2022-09-14T02:58:02.407Z,71.66
2022-09-14T03:00:33.763Z,71.14
2022-09-14T03:03:01.593Z,71.05
2022-09-14T03:05:29.364Z,70.28
2022-09-14T03:07:57.319Z,70.69
2022-09-14T03:10:25.124Z,70.68
2022-09-14T03:12:53.172Z,70.41
2022-09-14T03:15:21.144Z,71.77
2022-09-14T03:17:51.233Z,72.58
2022-09-14T03:20:20.669Z,71.48
2022-09-14T03:22:48.622Z,72.23
2022-09-14T03:25:16.674Z,72.50
2022-09-14T03:27:45.139Z,73.22
2022-09-14T03:30:13.645Z,73.25
2022-09-14T03:32:41.428Z,73.21
2022-09-14T03:35:10.948Z,73.30
2022-09-14T03:37:39.830Z,73.82
2022-09-14T03:40:09.221Z,74.00
2022-09-14T03:42:37.118Z,74.23
2022-09-14T03:45:05.938Z,74.61
2022-09-14T03:47:34.373Z,75.55
2022-09-14T03:50:02.100Z,75.20
2022-09-14T03:52:31.184Z,75.32
2022-09-14T03:54:58.941Z,74.92
2022-09-14T03:57:26.678Z,73.94
2022-09-14T03:59:54.408Z,74.93
2022-09-14T04:02:22.135Z,75.43
2022-09-14T04:04:49.878Z,75.71
2022-09-14T04:07:17.763Z,76.42
2022-09-14T04:09:47.023Z,76.06
2022-09-14T04:12:14.758Z,75.97
2022-09-14T04:14:42.809Z,76.29
2022-09-14T04:17:10.682Z,77.57
2022-09-14T04:19:41.529Z,78.12
2022-09-14T04:22:09.662Z,78.83
2022-09-14T04:24:37.651Z,78.66
2022-09-14T04:27:06.828Z,79.33
2022-09-14T04:29:34.553Z,78.56
2022-09-14T04:32:03.793Z,77.67
2022-09-14T04:34:31.529Z,78.38
2022-09-14T04:36:59.279Z,78.01
2022-09-14T04:39:27.048Z,78.39
2022-09-14T04:41:54.764Z,78.57
2022-09-14T04:44:23.851Z,79.10
2022-09-14T04:46:51.638Z,77.75
2022-09-14T04:49:21.480Z,77.54
2022-09-14T04:51:49.324Z,77.80
2022-09-14T04:54:18.390Z,78.39
2022-09-14T04:56:46.611Z,78.91
2022-09-14T04:59:15.266Z,79.37
2022-09-14T05:01:45.662Z,79.34
2022-09-14T05:04:13.625Z,80.46
2022-09-14T05:06:42.987Z,80.70
2022-09-14T05:09:13.526Z,80.53
2022-09-14T05:11:41.589Z,81.32
2022-09-14T05:14:12.145Z,80.73
2022-09-14T05:16:40.761Z,78.47
2022-09-14T05:19:12.929Z,78.49
2022-09-14T05:21:40.742Z,79.31
2022-09-14T05:24:12.411Z,80.77
2022-09-14T05:26:40.238Z,80.26
2022-09-14T05:29:08.020Z,80.18
2022-09-14T05:31:35.814Z,80.97
2022-09-14T05:34:03.753Z,81.87
2022-09-14T05:36:32.837Z,81.79
2022-09-14T05:39:02.504Z,81.90
2022-09-14T05:41:30.250Z,81.08
2022-09-14T05:43:59.616Z,81.58
2022-09-14T05:46:27.614Z,81.83
2022-09-14T05:48:55.517Z,81.35
2022-09-14T05:51:24.724Z,80.61
2022-09-14T05:53:55.642Z,80.66
2022-09-14T05:56:25.038Z,80.13
2022-09-14T05:58:53.138Z,79.24
2022-09-14T06:01:23.653Z,79.72
2022-09-14T06:03:52.145Z,80.39
2022-09-14T06:06:20.868Z,81.09
2022-09-14T06:08:52.549Z,81.48
2022-09-14T06:11:23.482Z,80.69
2022-09-14T06:13:51.803Z,81.48
2022-09-14T06:16:21.385Z,81.70
2022-09-14T06:18:49.771Z,81.39
2022-09-14T06:21:19.331Z,81.78
2022-09-14T06:23:48.221Z,81.40
2022-09-14T06:26:16.404Z,81.82
2022-09-14T06:28:45.555Z,82.60
2022-09-14T06:31:14.265Z,82.86
2022-09-14T06:33:45.353Z,83.17
2022-09-14T06:36:15.046Z,83.16
2022-09-14T06:38:43.429Z,83.87
2022-09-14T06:41:13.452Z,83.92
2022-09-14T06:43:42.471Z,82.88
2022-09-14T06:46:13.908Z,82.30
2022-09-14T06:48:43.649Z,82.46
2022-09-14T06:51:16.682Z,83.70
2022-09-14T06:53:44.566Z,83.69
2022-09-14T06:56:12.825Z,83.69
2022-09-14T06:58:40.627Z,84.65
2022-09-14T07:01:10.952Z,85.23
2022-09-14T07:03:40.907Z,85.83
2022-09-14T07:06:10.809Z,85.96
2022-09-14T07:08:39.879Z,84.96
2022-09-14T07:11:09.199Z,84.46
2022-09-14T07:13:37.424Z,85.84
2022-09-14T07:16:05.521Z,85.68
2022-09-14T07:18:34.066Z,85.54
2022-09-14T07:21:07.589Z,85.14
2022-09-14T07:23:37.725Z,84.89
2022-09-14T07:26:07.824Z,86.01
2022-09-14T07:28:36.424Z,85.83
2022-09-14T07:31:05.077Z,86.06
2022-09-14T07:33:32.949Z,86.01
2022-09-14T07:36:08.821Z,85.80
2022-09-14T07:38:51.575Z,85.14
2022-09-14T07:41:20.507Z,85.14
2022-09-14T07:43:50.144Z,85.42
2022-09-14T07:46:18.387Z,85.31
2022-09-14T07:48:46.283Z,83.56
2022-09-14T07:51:15.585Z,84.22
2022-09-14T07:53:44.311Z,83.08
2022-09-14T07:56:16.599Z,84.93
2022-09-14T07:58:44.858Z,84.73
2022-09-14T08:01:14.340Z,85.33
2022-09-14T08:03:43.755Z,85.18
2022-09-14T08:06:13.345Z,85.07
2022-09-14T08:08:44.270Z,85.29
2022-09-14T08:11:13.846Z,84.53
2022-09-14T08:13:43.405Z,84.27
2022-09-14T08:16:11.693Z,84.39
2022-09-14T08:18:40.249Z,83.88
2022-09-14T08:21:09.369Z,84.71
2022-09-14T08:23:37.527Z,84.83
2022-09-14T08:26:08.035Z,85.99
2022-09-14T08:28:36.336Z,85.04
2022-09-14T08:31:05.958Z,84.38
2022-09-14T08:33:34.073Z,83.61
2022-09-14T08:36:03.731Z,83.60
2022-09-14T08:38:32.069Z,83.68
2022-09-14T08:41:06.883Z,84.41
2022-09-14T08:43:36.022Z,84.00
2022-09-14T08:46:05.849Z,83.79
2022-09-14T08:48:37.602Z,84.45
2022-09-14T08:51:07.809Z,83.69
2022-09-14T08:53:38.599Z,83.81
2022-09-14T08:56:12.578Z,83.65
2022-09-14T08:58:54.007Z,83.05
2022-09-14T09:01:24.870Z,83.88
2022-09-14T09:04:13.021Z,82.74
2022-09-14T09:06:47.110Z,83.19
2022-09-14T09:09:21.489Z,82.54
2022-09-14T09:11:52.339Z,82.60
2022-09-14T09:14:24.596Z,81.95
2022-09-14T09:16:54.345Z,82.10
2022-09-14T09:19:28.684Z,83.61
2022-09-14T09:21:56.802Z,82.59
2022-09-14T09:24:28.380Z,82.65
2022-09-14T09:26:56.129Z,83.70
2022-09-14T09:29:25.433Z,83.98
2022-09-14T09:32:15.412Z,84.49
2022-09-14T09:34:49.086Z,83.25
2022-09-14T09:37:38.959Z,82.94
2022-09-14T09:40:15.679Z,84.63
2022-09-14T09:43:04.668Z,84.58
2022-09-14T09:45:48.105Z,83.01
2022-09-14T09:48:16.397Z,83.24
2022-09-14T09:50:49.196Z,83.70
2022-09-14T09:53:18.455Z,83.81
2022-09-14T09:55:49.106Z,83.89
2022-09-14T09:58:38.597Z,83.75
2022-09-14T10:01:12.376Z,83.43
2022-09-14T10:03:41.525Z,84.27
2022-09-14T10:06:11.094Z,84.84
2022-09-14T10:08:43.901Z,85.09
2022-09-14T10:11:33.093Z,85.37
2022-09-14T10:14:01.097Z,85.56
2022-09-14T10:16:35.977Z,85.43
2022-09-14T10:19:04.373Z,85.59
2022-09-14T10:21:32.373Z,84.74
2022-09-14T10:24:06.316Z,84.71
2022-09-14T10:26:38.385Z,85.36
2022-09-14T10:29:30.403Z,85.14
2022-09-14T10:32:05.297Z,83.37
2022-09-14T10:34:33.843Z,84.30
2022-09-14T10:37:13.321Z,84.06
2022-09-14T10:39:45.238Z,83.32
2022-09-14T10:42:19.346Z,82.35
2022-09-14T10:44:54.053Z,83.58
2022-09-14T10:47:44.776Z,83.73
2022-09-14T10:50:26.261Z,84.57
2022-09-14T10:53:01.838Z,83.44
2022-09-14T10:55:34.376Z,82.04
2022-09-14T10:58:18.131Z,83.01
2022-09-14T11:00:54.499Z,82.02
2022-09-14T11:03:33.801Z,83.30
2022-09-14T11:06:10.075Z,83.31
2022-09-14T11:08:41.708Z,83.49
2022-09-14T11:11:24.689Z,83.81
2022-09-14T11:14:00.208Z,83.15
2022-09-14T11:16:52.573Z,81.50
2022-09-14T11:19:29.481Z,82.50
2022-09-14T11:22:04.146Z,81.58
2022-09-14T11:24:37.520Z,81.22
2022-09-14T11:27:09.237Z,80.77
2022-09-14T11:29:41.294Z,79.85
2022-09-14T11:32:22.091Z,80.58
2022-09-14T11:34:56.780Z,80.44
2022-09-14T11:37:30.810Z,80.91
2022-09-14T11:40:05.133Z,80.01
2022-09-14T11:42:36.181Z,79.83
2022-09-14T11:45:08.049Z,79.58
2022-09-14T11:47:39.213Z,81.34
2022-09-14T11:50:20.214Z,81.10
2022-09-14T11:52:50.239Z,80.87
2022-09-14T11:55:19.201Z,81.59
2022-09-14T11:57:48.186Z,80.10
2022-09-14T12:01:05.013Z,78.13
2022-09-14T12:04:10.288Z,79.82
2022-09-14T12:06:55.113Z,79.32
2022-09-14T12:09:50.167Z,78.97
2022-09-14T12:12:38.764Z,78.82
2022-09-14T12:15:19.035Z,78.32
2022-09-14T12:17:46.807Z,78.62
2022-09-14T12:20:40.376Z,77.92
2022-09-14T12:23:18.806Z,77.67
2022-09-14T12:26:08.398Z,79.03
2022-09-14T12:28:47.784Z,79.85
2022-09-14T12:31:54.093Z,81.21
2022-09-14T12:34:23.348Z,80.54
2022-09-14T12:37:07.643Z,80.59
2022-09-14T12:40:34.700Z,79.59
2022-09-14T12:43:51.023Z,81.16
2022-09-14T12:46:38.796Z,82.40
2022-09-14T12:49:31.306Z,81.84
2022-09-14T12:52:05.495Z,81.61
2022-09-14T12:54:50.548Z,81.95
2022-09-14T12:57:27.354Z,80.25
2022-09-14T13:00:01.278Z,80.62
2022-09-14T13:03:01.502Z,81.97
2022-09-14T13:05:31.216Z,79.53
2022-09-14T13:07:59.266Z,80.99
2022-09-14T13:10:32.124Z,80.67
2022-09-14T13:13:01.598Z,81.01
2022-09-14T13:15:33.182Z,81.79
2022-09-14T13:18:02.582Z,82.10
2022-09-14T13:20:31.492Z,82.71
2022-09-14T13:22:59.787Z,80.13
2022-09-14T13:25:34.330Z,79.08
2022-09-14T13:28:04.652Z,79.85
2022-09-14T13:30:33.964Z,80.92
2022-09-14T13:33:02.185Z,80.33
2022-09-14T13:35:34.809Z,79.06
2022-09-14T13:38:08.630Z,79.08
2022-09-14T13:40:38.330Z,78.75
2022-09-14T13:43:06.701Z,79.64
2022-09-14T13:45:35.081Z,78.65
2022-09-14T13:48:03.201Z,78.45
2022-09-14T13:50:31.134Z,78.66
2022-09-14T13:53:03.850Z,77.82
2022-09-14T13:55:45.165Z,78.42
2022-09-14T13:58:22.151Z,77.26
2022-09-14T14:00:59.173Z,77.59
2022-09-14T14:03:32.986Z,75.86
2022-09-14T14:06:04.904Z,76.56
2022-09-14T14:08:35.452Z,76.43
2022-09-14T14:11:07.208Z,78.17
2022-09-14T14:13:36.966Z,78.15
2022-09-14T14:16:16.048Z,78.57
2022-09-14T14:18:44.936Z,78.53
2022-09-14T14:21:25.007Z,78.04
2022-09-14T14:24:12.131Z,78.15
2022-09-14T14:26:48.695Z,79.34
2022-09-14T14:29:17.688Z,79.04
2022-09-14T14:31:45.677Z,78.45
2022-09-14T14:34:20.010Z,76.93
2022-09-14T14:36:49.935Z,76.53
2022-09-14T14:39:19.478Z,75.58
2022-09-14T14:41:49.507Z,76.97
2022-09-14T14:44:20.722Z,77.10
2022-09-14T14:46:48.858Z,75.84
2022-09-14T14:49:19.151Z,76.95
2022-09-14T14:51:47.853Z,77.01
2022-09-14T14:54:16.608Z,77.77
2022-09-14T14:56:46.413Z,76.73
2022-09-14T14:59:26.842Z,75.07
2022-09-14T15:01:55.061Z,77.84
2022-09-14T15:04:23.151Z,77.38
2022-09-14T15:06:51.141Z,78.49
2022-09-14T15:09:20.983Z,78.01
2022-09-14T15:11:48.911Z,78.96
2022-09-14T15:14:22.110Z,77.21
2022-09-14T15:16:55.073Z,77.85
2022-09-14T15:19:23.050Z,77.88
2022-09-14T15:21:51.000Z,78.66
2022-09-14T15:24:18.960Z,79.96
2022-09-14T15:26:46.769Z,79.52
2022-09-14T15:29:14.557Z,78.73
2022-09-14T15:31:43.808Z,78.15
2022-09-14T15:34:11.691Z,76.26
2022-09-14T15:36:40.818Z,76.06
2022-09-14T15:39:10.217Z,74.85
2022-09-14T15:41:38.041Z,75.58
2022-09-14T15:44:06.043Z,76.28
2022-09-14T15:46:33.783Z,75.80
2022-09-14T15:49:06.345Z,74.20
2022-09-14T15:51:34.201Z,74.35
2022-09-14T15:54:02.615Z,76.72
2022-09-14T15:56:30.619Z,75.45
2022-09-14T15:58:59.441Z,76.60
2022-09-14T16:01:28.242Z,77.61
2022-09-14T16:03:59.749Z,77.39
2022-09-14T16:06:29.561Z,78.43
2022-09-14T16:08:57.648Z,78.80
2022-09-14T16:11:25.612Z,79.56
2022-09-14T16:13:53.798Z,79.41
2022-09-14T16:16:22.152Z,79.57
2022-09-14T16:18:50.800Z,79.21
2022-09-14T16:21:21.260Z,79.16
2022-09-14T16:23:51.785Z,78.90
2022-09-14T16:26:21.657Z,80.20
2022-09-14T16:28:51.026Z,80.55
2022-09-14T16:31:21.614Z,80.36
2022-09-14T16:33:51.118Z,79.94
2022-09-14T16:36:20.542Z,81.75
2022-09-14T16:38:48.389Z,81.17
2022-09-14T16:41:17.771Z,79.76
2022-09-14T16:43:45.666Z,80.96
2022-09-14T16:46:15.253Z,79.91
2022-09-14T16:48:47.299Z,80.57
2022-09-14T16:51:16.705Z,81.58
2022-09-14T16:53:45.801Z,81.84
2022-09-14T16:56:16.194Z,81.77
2022-09-14T16:58:46.392Z,81.28
2022-09-14T17:01:16.066Z,81.77
2022-09-14T17:03:44.745Z,81.04
2022-09-14T17:06:15.557Z,81.63
2022-09-14T17:08:44.218Z,83.04
2022-09-14T17:11:12.599Z,81.67
2022-09-14T17:13:40.425Z,81.37
2022-09-14T17:16:11.194Z,80.91
2022-09-14T17:18:41.372Z,81.11
2022-09-14T17:21:10.493Z,82.14
2022-09-14T17:23:38.454Z,83.15
2022-09-14T17:26:07.780Z,83.05
2022-09-14T17:28:35.891Z,82.32
2022-09-14T17:31:05.323Z,82.28
2022-09-14T17:33:35.712Z,83.50
2022-09-14T17:36:06.388Z,83.39
2022-09-14T17:38:35.469Z,82.88
2022-09-14T17:41:04.866Z,82.13
2022-09-14T17:43:32.932Z,82.72
2022-09-14T17:46:01.270Z,83.27
2022-09-14T17:48:32.114Z,83.17
2022-09-14T17:51:06.266Z,83.89
2022-09-14T17:53:38.228Z,83.71
2022-09-14T17:56:07.945Z,83.18
2022-09-14T17:58:35.985Z,81.75
2022-09-14T18:01:08.580Z,80.95
2022-09-14T18:03:36.629Z,81.96
2022-09-14T18:06:06.420Z,83.65
2022-09-14T18:08:34.618Z,84.58
2022-09-14T18:11:05.512Z,84.27
2022-09-14T18:13:33.278Z,84.11
2022-09-14T18:16:01.958Z,84.76
2022-09-14T18:18:29.789Z,85.62
2022-09-14T18:20:59.626Z,84.65
2022-09-14T18:23:28.963Z,85.34
2022-09-14T18:25:57.034Z,85.14
2022-09-14T18:28:25.161Z,85.57
2022-09-14T18:31:00.823Z,85.37
2022-09-14T18:33:28.757Z,85.22
2022-09-14T18:35:57.007Z,85.16
2022-09-14T18:38:25.175Z,84.20
2022-09-14T18:40:54.314Z,84.03
2022-09-14T18:43:22.585Z,84.20
2022-09-14T18:45:50.386Z,83.94
2022-09-14T18:48:18.101Z,84.66
2022-09-14T18:50:45.826Z,85.00
2022-09-14T18:53:13.797Z,85.61
2022-09-14T18:55:41.489Z,85.00
2022-09-14T18:58:10.567Z,84.34
2022-09-14T19:00:38.347Z,84.01
2022-09-14T19:03:06.128Z,83.84
2022-09-14T19:05:33.894Z,84.08
2022-09-14T19:08:02.179Z,83.85
2022-09-14T19:10:31.224Z,83.96
2022-09-14T19:12:58.963Z,83.62
2022-09-14T19:15:32.077Z,83.05
2022-09-14T19:18:00.906Z,82.83
2022-09-14T19:20:43.079Z,83.28
2022-09-14T19:23:16.478Z,83.77
2022-09-14T19:25:44.346Z,83.72
2022-09-14T19:28:12.255Z,83.79
2022-09-14T19:30:42.516Z,84.41
2022-09-14T19:33:10.199Z,84.76
2022-09-14T19:35:37.964Z,86.07
2022-09-14T19:38:05.645Z,85.77
2022-09-14T19:40:33.436Z,84.80
2022-09-14T19:43:01.266Z,84.39
2022-09-14T19:45:29.454Z,83.42
2022-09-14T19:47:58.527Z,83.43
2022-09-14T19:50:26.430Z,83.76
2022-09-14T19:52:55.609Z,83.84
2022-09-14T19:55:23.497Z,85.05
2022-09-14T19:57:51.225Z,84.18
2022-09-14T20:00:19.037Z,83.63
2022-09-14T20:02:46.840Z,83.09
2022-09-14T20:05:16.599Z,82.98
2022-09-14T20:07:44.342Z,82.30
2022-09-14T20:10:12.177Z,83.14
2022-09-14T20:12:39.958Z,84.42
2022-09-14T20:15:08.575Z,84.01
2022-09-14T20:17:36.334Z,83.10
2022-09-14T20:20:05.246Z,83.32
2022-09-14T20:22:34.422Z,84.17
2022-09-14T20:25:02.432Z,84.35
2022-09-14T20:27:30.204Z,84.62
2022-09-14T20:29:57.931Z,84.05
2022-09-14T20:32:26.071Z,83.91
2022-09-14T20:34:53.857Z,84.19
2022-09-14T20:37:21.576Z,83.82
2022-09-14T20:39:51.066Z,83.89
2022-09-14T20:42:18.853Z,84.88
2022-09-14T20:44:46.561Z,84.44
2022-09-14T20:47:14.320Z,83.34
2022-09-14T20:49:42.108Z,83.07
2022-09-14T20:52:09.831Z,84.32
2022-09-14T20:54:37.661Z,85.12
2022-09-14T20:57:06.787Z,84.67
2022-09-14T20:59:34.707Z,84.40
2022-09-14T21:04:50.135Z,84.42
2022-09-14T21:07:18.045Z,83.76
2022-09-14T21:09:46.116Z,84.29
2022-09-14T21:11:12.062Z,85.14
2022-09-14T21:12:15.261Z,83.28
2022-09-14T21:14:45.026Z,83.13
2022-09-14T21:17:13.032Z,82.66
2022-09-14T21:19:40.849Z,83.26
2022-09-14T21:22:08.703Z,83.10
2022-09-14T21:24:36.439Z,83.94
2022-09-14T21:27:04.741Z,84.57
2022-09-14T21:29:34.396Z,83.80
2022-09-14T21:32:08.201Z,83.97
2022-09-14T21:34:36.696Z,83.57
2022-09-14T21:37:04.715Z,83.58
2022-09-14T21:39:32.599Z,84.23
2022-09-14T21:42:00.431Z,84.88
2022-09-14T21:44:29.829Z,84.92
2022-09-14T21:46:59.061Z,85.54
2022-09-14T21:49:26.814Z,84.31
2022-09-14T21:51:54.797Z,84.79
2022-09-14T21:54:22.648Z,83.81
2022-09-14T21:56:50.452Z,84.83
2022-09-14T21:59:20.440Z,85.58
2022-09-14T22:01:49.019Z,85.20
2022-09-14T22:04:19.580Z,85.40
2022-09-14T22:06:47.769Z,84.66
2022-09-14T22:09:17.449Z,85.51
2022-09-14T22:11:45.577Z,84.34
2022-09-14T22:14:14.846Z,84.45
2022-09-14T22:16:43.160Z,83.31
2022-09-14T22:19:16.382Z,82.82
2022-09-14T22:21:45.630Z,83.40
2022-09-14T22:24:15.013Z,83.00
2022-09-14T22:26:43.243Z,83.36
2022-09-14T22:29:12.828Z,83.03
2022-09-14T22:31:41.740Z,83.33
2022-09-14T22:34:09.589Z,83.10
2022-09-14T22:36:37.482Z,83.19
2022-09-14T22:39:07.540Z,83.23
2022-09-14T22:41:35.792Z,82.52
2022-09-14T22:44:04.098Z,82.67
2022-09-14T22:46:31.979Z,82.36
2022-09-14T22:48:59.899Z,82.22
2022-09-14T22:51:29.158Z,82.69
2022-09-14T22:53:57.322Z,83.53
2022-09-14T22:56:28.398Z,83.69
2022-09-14T22:58:56.799Z,84.83
2022-09-14T23:01:26.826Z,85.56
2022-09-14T23:03:59.533Z,84.65
2022-09-14T23:06:28.270Z,84.65
2022-09-14T23:08:56.313Z,84.60
2022-09-14T23:11:24.062Z,86.09
2022-09-14T23:13:53.943Z,87.12
2022-09-14T23:16:23.169Z,86.93
2022-09-14T23:18:52.017Z,86.73
2022-09-14T23:21:19.921Z,87.25
2022-09-14T23:23:51.944Z,86.03
2022-09-14T23:26:19.693Z,85.50
2022-09-14T23:28:53.642Z,85.60
2022-09-14T23:31:21.767Z,86.16
2022-09-14T23:33:50.817Z,85.89
2022-09-14T23:36:19.333Z,85.57
2022-09-14T23:38:48.239Z,85.79
2022-09-14T23:41:16.151Z,84.64
2022-09-14T23:43:44.329Z,84.76
2022-09-14T23:46:13.743Z,85.88
2022-09-14T23:48:41.537Z,86.32
2022-09-14T23:51:10.405Z,86.20
2022-09-14T23:53:38.614Z,84.88
2022-09-14T23:56:07.029Z,84.82
2022-09-14T23:58:34.793Z,84.81
